createdAt,value
2018-04-29T00:02:00.625Z,16.60
2018-04-29T00:04:26.873Z,16.50
2018-04-29T00:06:53.087Z,16.40
2018-04-29T00:09:19.400Z,16.40
2018-04-29T00:11:46.391Z,16.40
2018-04-29T00:14:13.484Z,16.40
2018-04-29T00:16:39.714Z,16.40
2018-04-29T00:19:06.361Z,16.20
2018-04-29T00:21:32.585Z,16.10
2018-04-29T00:23:58.841Z,16.10
2018-04-29T00:26:25.826Z,16.00
2018-04-29T00:28:52.548Z,16.00
2018-04-29T00:31:19.498Z,15.90
2018-04-29T00:33:46.481Z,16.00
2018-04-29T00:36:12.713Z,15.90
2018-04-29T00:38:38.920Z,15.90
2018-04-29T00:41:05.281Z,15.90
2018-04-29T00:43:32.296Z,15.90
2018-04-29T00:46:00.185Z,16.00
2018-04-29T00:48:27.585Z,16.00
2018-04-29T00:50:53.857Z,16.00
2018-04-29T00:53:20.161Z,15.90
2018-04-29T00:55:46.388Z,15.80
2018-04-29T00:58:13.093Z,15.80
2018-04-29T01:00:40.097Z,15.70
2018-04-29T01:03:06.353Z,15.70
2018-04-29T01:05:32.609Z,15.70
2018-04-29T01:07:59.569Z,15.70
2018-04-29T01:10:25.870Z,15.70
2018-04-29T01:12:52.718Z,15.80
2018-04-29T01:15:18.948Z,15.70
2018-04-29T01:17:45.169Z,15.60
2018-04-29T01:20:11.436Z,15.50
2018-04-29T01:22:38.402Z,15.50
2018-04-29T01:25:06.388Z,15.50
2018-04-29T01:27:32.603Z,15.50
2018-04-29T01:29:59.572Z,15.40
2018-04-29T01:32:25.823Z,15.30
2018-04-29T01:34:52.053Z,15.30
2018-04-29T01:37:18.337Z,15.20
2018-04-29T01:39:44.580Z,15.20
2018-04-29T01:42:10.794Z,15.20
2018-04-29T01:44:37.584Z,15.10
2018-04-29T01:47:04.827Z,15.10
2018-04-29T01:49:31.777Z,15.10
2018-04-29T01:51:58.729Z,15.00
2018-04-29T01:54:25.737Z,14.90
2018-04-29T01:56:52.540Z,14.90
2018-04-29T01:59:19.497Z,14.80
2018-04-29T02:01:46.429Z,14.80
2018-04-29T02:04:13.385Z,14.80
2018-04-29T02:06:40.416Z,14.80
2018-04-29T02:09:07.097Z,14.80
2018-04-29T02:11:33.316Z,14.80
2018-04-29T02:14:00.291Z,14.60
2018-04-29T02:16:26.513Z,14.60
2018-04-29T02:18:53.366Z,14.60
2018-04-29T02:21:19.696Z,14.60
2018-04-29T02:23:46.569Z,14.50
2018-04-29T02:26:12.777Z,14.50
2018-04-29T02:28:39.007Z,14.50
2018-04-29T02:31:05.994Z,14.50
2018-04-29T02:33:32.220Z,14.50
2018-04-29T02:35:58.546Z,14.60
2018-04-29T02:38:24.804Z,14.60
2018-04-29T02:40:51.916Z,14.60
2018-04-29T02:43:18.724Z,14.60
2018-04-29T02:45:45.354Z,14.60
2018-04-29T02:48:12.070Z,14.70
2018-04-29T02:50:38.291Z,14.70
2018-04-29T02:53:04.514Z,14.70
2018-04-29T02:55:31.506Z,14.50
2018-04-29T02:57:58.724Z,14.50
2018-04-29T03:00:26.284Z,14.40
2018-04-29T03:02:53.237Z,14.40
2018-04-29T03:05:20.214Z,14.30
2018-04-29T03:07:46.954Z,14.30
2018-04-29T03:10:13.162Z,14.20
2018-04-29T03:12:40.116Z,14.10
2018-04-29T03:15:07.100Z,14.00
2018-04-29T03:17:33.318Z,14.00
2018-04-29T03:20:00.571Z,14.00
2018-04-29T03:22:26.785Z,14.10
2018-04-29T03:24:53.737Z,14.20
2018-04-29T03:27:20.721Z,14.30
2018-04-29T03:29:46.957Z,14.30
2018-04-29T03:32:13.258Z,14.30
2018-04-29T03:34:40.249Z,14.20
2018-04-29T03:37:06.459Z,14.20
2018-04-29T03:39:33.954Z,14.10
2018-04-29T03:42:00.172Z,14.10
2018-04-29T03:44:26.994Z,14.00
2018-04-29T03:46:54.729Z,13.90
2018-04-29T03:49:22.437Z,13.90
2018-04-29T03:51:49.397Z,13.90
2018-04-29T03:54:15.677Z,13.90
2018-04-29T03:56:42.876Z,14.00
2018-04-29T03:59:22.926Z,14.00
2018-04-29T04:02:02.309Z,14.00
2018-04-29T04:04:28.945Z,14.00
2018-04-29T04:06:55.167Z,13.90
2018-04-29T04:09:21.389Z,13.90
2018-04-29T04:11:47.637Z,13.80
2018-04-29T04:14:13.851Z,13.80
2018-04-29T04:16:40.169Z,13.80
2018-04-29T04:19:07.586Z,13.80
2018-04-29T04:21:33.797Z,13.80
2018-04-29T04:24:00.023Z,13.80
2018-04-29T04:26:26.273Z,13.80
2018-04-29T04:28:52.487Z,13.80
2018-04-29T04:31:18.807Z,13.80
2018-04-29T04:33:45.801Z,13.80
2018-04-29T04:36:12.681Z,13.80
2018-04-29T04:38:39.353Z,13.90
2018-04-29T04:41:06.329Z,14.00
2018-04-29T04:43:33.353Z,14.00
2018-04-29T04:46:00.921Z,14.20
2018-04-29T04:48:28.417Z,14.30
2018-04-29T04:50:54.668Z,14.20
2018-04-29T04:53:20.881Z,14.30
2018-04-29T04:55:47.163Z,14.40
2018-04-29T04:58:14.926Z,14.60
2018-04-29T05:00:41.115Z,14.60
2018-04-29T05:03:08.065Z,14.60
2018-04-29T05:05:34.268Z,14.60
2018-04-29T05:08:01.249Z,14.70
2018-04-29T05:10:27.486Z,14.70
2018-04-29T05:12:53.716Z,14.70
2018-04-29T05:15:20.743Z,14.80
2018-04-29T05:17:47.700Z,14.90
2018-04-29T05:20:13.916Z,14.90
2018-04-29T05:22:40.892Z,15.10
2018-04-29T05:25:07.116Z,15.10
2018-04-29T05:27:33.571Z,15.10
2018-04-29T05:29:59.825Z,15.20
2018-04-29T05:32:26.049Z,15.30
2018-04-29T05:34:53.273Z,15.30
2018-04-29T05:37:20.237Z,15.50
2018-04-29T05:39:46.457Z,15.40
2018-04-29T05:42:13.460Z,15.50
2018-04-29T05:44:40.505Z,15.60
2018-04-29T05:47:08.337Z,15.70
2018-04-29T05:49:35.289Z,15.80
2018-04-29T05:52:02.749Z,15.80
2018-04-29T05:54:29.722Z,15.80
2018-04-29T05:56:56.955Z,15.80
2018-04-29T05:59:24.377Z,16.00
2018-04-29T06:01:50.591Z,16.00
2018-04-29T06:04:16.808Z,16.10
2018-04-29T06:06:43.141Z,16.10
2018-04-29T06:09:10.142Z,16.20
2018-04-29T06:11:36.429Z,16.30
2018-04-29T06:14:03.121Z,16.30
2018-04-29T06:16:29.355Z,16.40
2018-04-29T06:18:55.589Z,16.50
2018-04-29T06:21:21.829Z,16.50
2018-04-29T06:23:48.061Z,16.60
2018-04-29T06:26:14.429Z,16.70
2018-04-29T06:28:40.629Z,16.80
2018-04-29T06:31:07.413Z,16.90
2018-04-29T06:33:34.452Z,16.90
2018-04-29T06:36:01.430Z,17.10
2018-04-29T06:38:27.660Z,17.10
2018-04-29T06:40:53.879Z,17.20
2018-04-29T06:43:21.557Z,17.40
2018-04-29T06:45:48.311Z,17.30
2018-04-29T06:48:15.961Z,17.40
2018-04-29T06:50:42.210Z,17.50
2018-04-29T06:53:08.434Z,17.60
2018-04-29T06:55:34.682Z,17.70
2018-04-29T06:58:01.564Z,17.70
2018-04-29T07:00:27.783Z,17.80
2018-04-29T07:02:54.018Z,17.90
2018-04-29T07:05:20.260Z,18.00
2018-04-29T07:07:46.480Z,18.00
2018-04-29T07:10:13.801Z,18.10
2018-04-29T07:12:40.797Z,18.30
2018-04-29T07:15:07.023Z,18.30
2018-04-29T07:17:33.270Z,18.40
2018-04-29T07:19:59.497Z,18.40
2018-04-29T07:22:25.816Z,18.60
2018-04-29T07:24:52.045Z,18.70
2018-04-29T07:27:18.267Z,18.70
2018-04-29T07:29:45.189Z,18.90
2018-04-29T07:32:11.405Z,18.90
2018-04-29T07:34:37.645Z,19.00
2018-04-29T07:37:03.877Z,19.10
2018-04-29T07:39:30.104Z,19.10
2018-04-29T07:41:56.744Z,19.20
2018-04-29T07:44:23.952Z,19.30
2018-04-29T07:46:51.101Z,19.30
2018-04-29T07:49:18.061Z,19.60
2018-04-29T07:51:44.310Z,19.50
2018-04-29T07:54:10.622Z,19.60
2018-04-29T07:56:38.389Z,19.80
2018-04-29T07:59:05.468Z,19.90
2018-04-29T08:01:31.685Z,19.80
2018-04-29T08:03:57.920Z,19.90
2018-04-29T08:06:24.146Z,20.00
2018-04-29T08:08:51.709Z,20.20
2018-04-29T08:11:18.681Z,20.30
2018-04-29T08:13:44.897Z,20.30
2018-04-29T08:16:11.880Z,20.50
2018-04-29T08:18:38.113Z,20.50
2018-04-29T08:21:04.413Z,20.50
2018-04-29T08:23:31.391Z,20.70
2018-04-29T08:25:58.191Z,20.70
2018-04-29T08:28:25.793Z,20.80
2018-04-29T08:30:52.716Z,20.90
2018-04-29T08:33:19.676Z,21.00
2018-04-29T08:35:46.637Z,21.10
2018-04-29T08:38:12.893Z,21.10
2018-04-29T08:40:39.097Z,21.20
2018-04-29T08:43:06.198Z,21.30
2018-04-29T08:45:33.209Z,21.30
2018-04-29T08:48:00.973Z,21.40
2018-04-29T08:50:27.943Z,21.50
2018-04-29T08:52:54.719Z,21.50
2018-04-29T08:55:20.939Z,21.70
2018-04-29T08:57:47.842Z,21.80
2018-04-29T09:00:14.793Z,22.00
2018-04-29T09:02:41.763Z,22.00
2018-04-29T09:05:08.010Z,22.10
2018-04-29T09:07:35.054Z,22.20
2018-04-29T09:10:01.269Z,22.20
2018-04-29T09:12:28.222Z,22.30
2018-04-29T09:14:55.633Z,22.40
2018-04-29T09:17:21.858Z,22.40
2018-04-29T09:19:48.182Z,22.40
2018-04-29T09:22:14.417Z,22.50
2018-04-29T09:24:41.342Z,22.60
2018-04-29T09:27:08.316Z,23.00
2018-04-29T09:29:34.541Z,22.90
2018-04-29T09:32:00.809Z,23.10
2018-04-29T09:34:27.038Z,23.20
2018-04-29T09:36:53.438Z,23.40
2018-04-29T09:39:19.660Z,23.50
2018-04-29T09:41:45.886Z,23.70
2018-04-29T09:44:12.962Z,23.70
2018-04-29T09:46:39.476Z,23.80
2018-04-29T09:49:06.957Z,23.80
2018-04-29T09:51:34.482Z,24.20
2018-04-29T09:54:00.717Z,24.20
2018-04-29T09:56:26.942Z,24.30
2018-04-29T09:58:53.742Z,24.30
2018-04-29T10:01:24.529Z,24.50
2018-04-29T10:03:51.392Z,24.40
2018-04-29T10:06:17.624Z,24.60
2018-04-29T10:08:44.613Z,24.80
2018-04-29T10:11:10.866Z,24.80
2018-04-29T10:13:37.691Z,24.90
2018-04-29T10:16:03.960Z,25.00
2018-04-29T10:18:30.804Z,25.10
2018-04-29T10:20:57.485Z,25.20
2018-04-29T10:23:24.874Z,25.30
2018-04-29T10:25:51.851Z,25.30
2018-04-29T10:28:18.064Z,25.30
2018-04-29T10:30:45.056Z,25.50
2018-04-29T10:33:11.291Z,25.50
2018-04-29T10:35:37.599Z,25.60
2018-04-29T10:38:03.878Z,25.70
2018-04-29T10:40:30.117Z,25.80
2018-04-29T10:42:56.421Z,25.90
2018-04-29T10:45:23.335Z,26.00
2018-04-29T10:47:50.973Z,26.00
2018-04-29T10:50:17.192Z,26.00
2018-04-29T10:52:43.413Z,26.10
2018-04-29T10:55:10.326Z,26.20
2018-04-29T10:57:38.221Z,26.30
2018-04-29T11:00:04.481Z,26.40
2018-04-29T11:02:31.314Z,26.40
2018-04-29T11:04:57.557Z,26.50
2018-04-29T11:07:24.760Z,26.50
2018-04-29T11:09:51.743Z,26.60
2018-04-29T11:12:18.028Z,26.60
2018-04-29T11:14:44.280Z,26.70
2018-04-29T11:17:11.261Z,26.80
2018-04-29T11:19:38.622Z,26.90
2018-04-29T11:22:04.989Z,27.00
2018-04-29T11:24:31.157Z,27.10
2018-04-29T11:26:58.144Z,27.40
2018-04-29T11:29:24.552Z,27.40
2018-04-29T11:31:51.607Z,27.40
2018-04-29T11:34:18.832Z,27.50
2018-04-29T11:36:45.071Z,27.50
2018-04-29T11:39:11.293Z,27.60
2018-04-29T11:41:37.571Z,27.70
2018-04-29T11:44:05.032Z,27.90
2018-04-29T11:46:32.438Z,28.20
2018-04-29T11:48:59.063Z,28.10
2018-04-29T11:51:25.280Z,28.40
2018-04-29T11:53:51.486Z,28.40
2018-04-29T11:56:17.730Z,28.60
2018-04-29T11:58:48.172Z,28.80
2018-04-29T12:01:15.160Z,28.80
2018-04-29T12:03:41.376Z,28.80
2018-04-29T12:06:08.717Z,28.90
2018-04-29T12:08:35.690Z,28.90
2018-04-29T12:11:01.920Z,28.90
2018-04-29T12:13:28.192Z,28.80
2018-04-29T12:15:54.409Z,28.90
2018-04-29T12:18:21.413Z,29.00
2018-04-29T12:20:48.394Z,29.20
2018-04-29T12:23:14.609Z,29.10
2018-04-29T12:25:40.859Z,29.20
2018-04-29T12:28:07.118Z,29.30
2018-04-29T12:30:33.436Z,29.40
2018-04-29T12:32:59.690Z,29.50
2018-04-29T12:35:25.905Z,29.50
2018-04-29T12:37:52.154Z,29.60
2018-04-29T12:40:18.445Z,29.70
2018-04-29T12:42:46.428Z,29.70
2018-04-29T12:45:12.999Z,29.60
2018-04-29T12:47:39.805Z,29.70
2018-04-29T12:50:06.768Z,30.00
2018-04-29T12:52:32.986Z,30.00
2018-04-29T12:54:59.999Z,30.10
2018-04-29T12:57:26.614Z,30.10
2018-04-29T12:59:52.834Z,30.10
2018-04-29T13:02:19.501Z,30.20
2018-04-29T13:04:45.819Z,30.30
2018-04-29T13:07:12.056Z,30.40
2018-04-29T13:09:38.300Z,30.40
2018-04-29T13:12:04.561Z,30.40
2018-04-29T13:14:31.458Z,30.40
2018-04-29T13:16:58.261Z,30.30
2018-04-29T13:19:24.461Z,30.40
2018-04-29T13:21:50.689Z,30.40
2018-04-29T13:24:16.944Z,30.50
2018-04-29T13:26:43.157Z,30.60
2018-04-29T13:29:09.452Z,30.70
2018-04-29T13:31:35.762Z,30.90
2018-04-29T13:34:01.990Z,30.80
2018-04-29T13:36:28.501Z,31.10
2018-04-29T13:38:54.738Z,31.30
2018-04-29T13:41:21.765Z,31.30
2018-04-29T13:43:49.435Z,31.00
2018-04-29T13:46:16.782Z,31.20
2018-04-29T13:48:44.253Z,31.40
2018-04-29T13:51:11.230Z,31.30
2018-04-29T13:53:39.205Z,31.30
2018-04-29T13:56:05.957Z,31.10
2018-04-29T13:58:32.773Z,30.90
2018-04-29T14:00:59.777Z,31.20
2018-04-29T14:03:25.998Z,31.20
2018-04-29T14:05:52.282Z,31.50
2018-04-29T14:08:19.250Z,32.50
2018-04-29T14:10:46.294Z,32.80
2018-04-29T14:13:14.068Z,33.10
2018-04-29T14:15:41.029Z,33.10
2018-04-29T14:18:07.250Z,33.10
2018-04-29T14:20:34.233Z,31.50
2018-04-29T14:23:00.449Z,31.40
2018-04-29T14:25:26.772Z,31.60
2018-04-29T14:27:53.755Z,31.90
2018-04-29T14:30:19.961Z,31.90
2018-04-29T14:32:46.225Z,32.10
2018-04-29T14:35:12.485Z,32.10
2018-04-29T14:37:38.977Z,32.30
2018-04-29T14:40:05.632Z,32.30
2018-04-29T14:42:31.836Z,32.40
2018-04-29T14:44:59.515Z,32.60
2018-04-29T14:47:27.068Z,32.70
2018-04-29T14:49:54.430Z,33.10
2018-04-29T14:52:22.246Z,33.10
2018-04-29T14:54:48.464Z,33.10
2018-04-29T14:57:15.393Z,33.40
2018-04-29T14:59:42.362Z,33.60
2018-04-29T15:02:08.577Z,33.60
2018-04-29T15:04:34.853Z,33.30
2018-04-29T15:07:01.081Z,33.10
2018-04-29T15:09:27.948Z,33.00
2018-04-29T15:11:54.833Z,33.10
2018-04-29T15:14:21.825Z,33.70
2018-04-29T15:16:48.033Z,33.60
2018-04-29T15:19:14.292Z,33.80
2018-04-29T15:21:40.658Z,33.70
2018-04-29T15:24:07.017Z,33.20
2018-04-29T15:26:34.046Z,32.90
2018-04-29T15:29:00.256Z,32.90
2018-04-29T15:31:26.525Z,33.10
2018-04-29T15:33:52.876Z,33.30
2018-04-29T15:36:20.301Z,33.50
2018-04-29T15:38:46.930Z,33.50
2018-04-29T15:41:13.150Z,33.30
2018-04-29T15:43:39.970Z,33.30
2018-04-29T15:46:07.290Z,33.10
2018-04-29T15:48:34.294Z,33.00
2018-04-29T15:51:00.540Z,33.20
2018-04-29T15:53:26.774Z,33.30
2018-04-29T15:55:53.012Z,33.10
2018-04-29T15:58:19.778Z,33.30
2018-04-29T16:00:46.013Z,33.40
2018-04-29T16:03:12.228Z,33.50
2018-04-29T16:05:38.486Z,33.30
2018-04-29T16:08:05.377Z,33.10
2018-04-29T16:10:32.358Z,33.30
2018-04-29T16:12:58.585Z,33.30
2018-04-29T16:15:24.844Z,33.20
2018-04-29T16:17:51.065Z,33.00
2018-04-29T16:20:17.369Z,33.00
2018-04-29T16:22:44.364Z,32.60
2018-04-29T16:25:11.889Z,32.60
2018-04-29T16:27:38.852Z,31.80
2018-04-29T16:30:05.080Z,31.80
2018-04-29T16:32:31.336Z,31.60
2018-04-29T16:34:58.028Z,31.40
2018-04-29T16:37:24.268Z,30.60
2018-04-29T16:39:50.474Z,29.80
2018-04-29T16:42:16.726Z,28.80
2018-04-29T16:44:43.497Z,28.30
2018-04-29T16:47:10.772Z,27.50
2018-04-29T16:49:37.005Z,27.40
2018-04-29T16:52:03.253Z,27.20
2018-04-29T16:54:29.517Z,26.80
2018-04-29T16:56:56.337Z,26.80
2018-04-29T16:59:22.552Z,26.60
2018-04-29T17:01:48.780Z,26.30
2018-04-29T17:04:16.539Z,25.90
2018-04-29T17:06:45.028Z,25.80
2018-04-29T17:09:12.009Z,25.60
2018-04-29T17:11:38.216Z,25.60
2018-04-29T17:14:05.228Z,25.30
2018-04-29T17:16:31.478Z,25.20
2018-04-29T17:18:57.780Z,25.10
2018-04-29T17:21:24.799Z,25.00
2018-04-29T17:23:51.011Z,24.80
2018-04-29T17:26:17.270Z,24.70
2018-04-29T17:28:43.498Z,24.60
2018-04-29T17:31:11.104Z,24.30
2018-04-29T17:33:37.332Z,24.30
2018-04-29T17:36:03.555Z,24.10
2018-04-29T17:38:29.813Z,24.00
2018-04-29T17:40:56.037Z,23.80
2018-04-29T17:43:23.148Z,23.80
2018-04-29T17:45:50.460Z,23.60
2018-04-29T17:48:17.105Z,23.50
2018-04-29T17:50:43.337Z,23.40
2018-04-29T17:53:10.012Z,23.30
2018-04-29T17:55:36.243Z,23.20
2018-04-29T17:58:03.658Z,22.90
2018-04-29T18:00:30.370Z,22.80
2018-04-29T18:02:57.841Z,22.60
2018-04-29T18:05:24.051Z,22.70
2018-04-29T18:07:51.041Z,22.40
2018-04-29T18:10:17.305Z,22.30
2018-04-29T18:12:43.536Z,22.20
2018-04-29T18:15:10.207Z,22.00
2018-04-29T18:17:36.447Z,21.90
2018-04-29T18:20:03.003Z,21.70
2018-04-29T18:22:29.969Z,21.40
2018-04-29T18:24:56.189Z,21.40
2018-04-29T18:27:23.176Z,21.20
2018-04-29T18:29:49.897Z,21.20
2018-04-29T18:32:16.113Z,21.20
2018-04-29T18:34:43.081Z,21.20
2018-04-29T18:37:09.349Z,21.20
2018-04-29T18:39:35.569Z,21.20
2018-04-29T18:42:02.488Z,21.20
2018-04-29T18:44:30.677Z,21.10
2018-04-29T18:46:57.933Z,21.10
2018-04-29T18:49:24.168Z,21.00
2018-04-29T18:51:50.393Z,21.00
2018-04-29T18:54:17.381Z,21.40
2018-04-29T18:56:44.070Z,21.40
2018-04-29T18:59:10.940Z,21.50
2018-04-29T19:01:38.776Z,21.60
2018-04-29T19:04:07.040Z,21.50
2018-04-29T19:06:33.842Z,21.50
2018-04-29T19:09:00.061Z,21.40
2018-04-29T19:11:27.409Z,21.30
2018-04-29T19:13:54.278Z,21.20
2018-04-29T19:16:21.257Z,21.10
2018-04-29T19:18:47.496Z,21.00
2018-04-29T19:21:13.740Z,20.90
2018-04-29T19:23:40.067Z,20.70
2018-04-29T19:26:07.104Z,20.70
2018-04-29T19:28:33.330Z,20.70
2018-04-29T19:30:59.545Z,20.80
2018-04-29T19:33:26.545Z,20.70
2018-04-29T19:35:52.781Z,20.70
2018-04-29T19:38:19.095Z,20.70
2018-04-29T19:40:45.821Z,20.60
2018-04-29T19:43:12.777Z,20.70
2018-04-29T19:45:39.466Z,20.70
2018-04-29T19:48:06.229Z,20.70
2018-04-29T19:50:32.460Z,20.60
2018-04-29T19:52:59.243Z,20.60
2018-04-29T19:55:26.212Z,20.50
2018-04-29T19:57:53.142Z,20.50
2018-04-29T20:00:20.705Z,20.30
2018-04-29T20:02:47.661Z,20.20
2018-04-29T20:05:14.637Z,20.10
2018-04-29T20:07:40.884Z,20.10
2018-04-29T20:10:07.117Z,20.00
2018-04-29T20:12:33.431Z,20.10
2018-04-29T20:14:59.687Z,20.10
2018-04-29T20:17:25.915Z,20.10
2018-04-29T20:19:52.170Z,20.10
2018-04-29T20:22:18.445Z,20.20
2018-04-29T20:24:45.947Z,20.20
2018-04-29T20:27:12.222Z,20.20
2018-04-29T20:29:38.427Z,20.10
2018-04-29T20:32:04.706Z,20.00
2018-04-29T20:34:31.661Z,19.70
2018-04-29T20:36:59.449Z,19.70
2018-04-29T20:39:25.663Z,19.60
2018-04-29T20:41:52.636Z,19.50
2018-04-29T20:44:19.762Z,19.50
2018-04-29T20:46:46.577Z,19.40
2018-04-29T20:49:13.477Z,19.50
2018-04-29T20:51:40.441Z,19.50
2018-04-29T20:54:06.669Z,19.50
2018-04-29T20:56:33.405Z,19.50
2018-04-29T20:59:00.402Z,19.70
2018-04-29T21:01:26.645Z,19.70
2018-04-29T21:03:52.909Z,19.60
2018-04-29T21:06:19.877Z,19.50
2018-04-29T21:08:46.925Z,19.40
2018-04-29T21:11:13.915Z,19.50
2018-04-29T21:13:40.168Z,19.50
2018-04-29T21:16:06.442Z,19.60
2018-04-29T21:18:33.469Z,19.70
2018-04-29T21:20:59.780Z,19.70
2018-04-29T21:23:26.786Z,19.70
2018-04-29T21:25:53.769Z,19.70
2018-04-29T21:28:20.036Z,19.70
2018-04-29T21:30:46.284Z,19.80
2018-04-29T21:33:12.506Z,19.80
2018-04-29T21:35:39.546Z,19.90
2018-04-29T21:38:05.831Z,20.00
2018-04-29T21:40:32.026Z,20.10
2018-04-29T21:42:58.817Z,20.20
2018-04-29T21:45:25.492Z,20.40
2018-04-29T21:47:52.242Z,20.40
2018-04-29T21:50:18.492Z,20.40
2018-04-29T21:52:45.388Z,20.40
2018-04-29T21:55:12.129Z,20.50
2018-04-29T21:57:39.597Z,20.50
2018-04-29T22:00:05.955Z,20.50
2018-04-29T22:02:32.187Z,20.60
2018-04-29T22:04:58.442Z,20.60
2018-04-29T22:07:24.665Z,20.60
2018-04-29T22:09:50.953Z,20.60
2018-04-29T22:12:17.941Z,20.70
2018-04-29T22:21:30.374Z,20.60
2018-04-29T22:23:56.613Z,20.70
2018-04-29T22:26:22.830Z,20.70
2018-04-29T22:28:49.090Z,20.70
2018-04-29T22:31:15.332Z,20.60
2018-04-29T22:33:42.809Z,20.40
2018-04-29T22:36:10.685Z,20.40
2018-04-29T22:38:37.653Z,20.30
2018-04-29T22:41:04.629Z,20.30
2018-04-29T22:43:31.437Z,20.30
2018-04-29T22:45:58.908Z,20.10
2018-04-29T22:48:25.749Z,20.10
2018-04-29T22:50:52.532Z,20.00
2018-04-29T22:53:19.409Z,20.00
2018-04-29T22:55:45.645Z,20.10
2018-04-29T22:58:12.316Z,20.10
2018-04-29T23:00:39.286Z,20.10
2018-04-29T23:03:05.506Z,20.10
2018-04-29T23:05:32.484Z,20.10
2018-04-29T23:07:58.689Z,20.10
2018-04-29T23:10:25.745Z,20.10
2018-04-29T23:12:51.998Z,20.20
2018-04-29T23:15:18.330Z,20.20
2018-04-29T23:17:45.021Z,20.20
2018-04-29T23:20:11.249Z,20.20
2018-04-29T23:22:37.469Z,20.30
2018-04-29T23:25:03.706Z,20.30
2018-04-29T23:27:29.905Z,20.20
2018-04-29T23:29:56.625Z,20.10
2018-04-29T23:32:23.594Z,20.00
2018-04-29T23:34:49.818Z,19.90
2018-04-29T23:37:16.802Z,20.00
2018-04-29T23:39:43.474Z,20.00
2018-04-29T23:42:09.692Z,19.90
2018-04-29T23:44:36.485Z,19.80
2018-04-29T23:47:05.085Z,20.00
2018-04-29T23:49:32.493Z,20.00
2018-04-29T23:51:58.717Z,20.00
2018-04-29T23:54:24.960Z,20.10
2018-04-29T23:56:51.677Z,20.10
2018-04-29T23:59:17.899Z,20.00
